Texas General Land Office
 Texas General Land Office
 George P. Bush, Commissioner

 Oil Spill Prevention
 & Response

Texas Automated Buoy System
Real Time Ocean Observations
Supporting Oil Spill Prevention and
Response since 1995
Geochemical and Environmental Research Group

TABS Buoy F -- Texas Automated Buoy System

TABS Buoy F Conditions at 09/18/2021 15:00 UTC (09/18/2021 10:00 CDT)
28° 50.5500'N   94° 14.4960'W
RDI 300kHz Workhorse ADCP-sensor depth 2m
Anemometer height: 2m
Water Depth: 79 feet (24 meters)
Speed: 7.23 cm/s (0.14 kts) Direction: 6 °T (N) Water Temp: 29°C (84 °F)
System Voltage: 12.6 V Signal Strength: 0.0 dB Ping Count: 0
Wind: 3.6 m/s (7.0 kts)
          From 119°T (ESE)
Air Temp: 23 °C (74 °F)
Relative Humidity:  0 %
Pressure: 1017.0 mb (30.03 inHg)
Waves: 0.3 m (1.1 ft) @ 5 sec
  


IMPORTANT: Notice to Mariners


Today's Velocity Data (download)

   Date   |  Time  |   East |   North|   Speed|  Dir | WaterT |
          |  (UTC) |  (cm/s)|  (cm/s)|  (cm/s)| (°T) |  (°C)  |
==========+========+========+========+========+======+========+
09/18/2021 01:00:00    18.40    -9.40    20.66  117.1   28.8
09/18/2021 02:00:00     8.90   -15.20    17.61  149.6   28.8
09/18/2021 03:00:00     1.80   -16.90    17.00  173.9   28.8
09/18/2021 04:00:00    -2.90   -20.20    20.41  188.2   28.7
09/18/2021 05:00:00    -7.50   -22.10    23.34  198.7   28.7
09/18/2021 06:00:00   -11.10   -21.20    23.93  207.6   28.7
09/18/2021 07:00:00   -12.50   -20.90    24.35  210.9   28.7
09/18/2021 08:00:00   -11.50   -17.60    21.02  213.2   28.6
09/18/2021 09:00:00   -10.40   -11.70    15.65  221.6   28.6
09/18/2021 10:00:00    -9.80    -5.60    11.29  240.3   28.6
09/18/2021 11:00:00    -7.70     0.10     7.70  270.7   28.6
09/18/2021 12:00:00    -5.60    -2.00     5.95  250.3   28.6
09/18/2021 13:00:00    -3.50     3.60     5.02  315.8   28.6
09/18/2021 14:00:00    -2.60     2.90     3.89  318.1   28.6
09/18/2021 15:00:00     0.70     7.20     7.23    5.6   28.7



       
  Today's Wave Data

   Date   |  Time  |Sig Wave Ht| Peak Period|
          |  (UTC) | (meters)  |    (sec)   |
==========+========+===========+============+
09/18/2021 02:17:42      0.2      200
09/18/2021 04:17:37      0.2      200
09/18/2021 06:17:36      0.3      200
09/18/2021 08:17:41      0.3      200
09/18/2021 10:17:42      0.3        5
09/18/2021 12:18:02      0.4      200
09/18/2021 14:17:43      0.3        5
       
 

Today's Temperature - Salinity Data     (Download)


   Date   |  Time  |   Temp |   Cond |Salinity| Density|SoundVel|
          |  (UTC) |   (°C) | (ms/cm)|        | kg/m^3 |  (m/s) |
==========+========+========+========+========+========+========+
09/18/2021 01:00:00     0.00     0.00     0.00     0.00     0.00
09/18/2021 02:00:00     0.00     0.00     0.00     0.00     0.00
09/18/2021 03:00:00     0.00     0.00     0.00     0.00     0.00
09/18/2021 04:00:00     0.00     0.00     0.00     0.00     0.00
09/18/2021 05:00:00     0.00     0.00     0.00     0.00     0.00
09/18/2021 06:00:00     0.00     0.00     0.00     0.00     0.00
09/18/2021 07:00:00     0.00     0.00     0.00     0.00     0.00
09/18/2021 08:00:00     0.00     0.00     0.00     0.00     0.00
09/18/2021 09:00:00     0.00     0.00     0.00     0.00     0.00
09/18/2021 10:00:00     0.00     0.00     0.00     0.00     0.00
09/18/2021 11:00:00     0.00     0.00     0.00     0.00     0.00
09/18/2021 12:00:00     0.00     0.00     0.00     0.00     0.00
09/18/2021 13:00:00     0.00     0.00     0.00     0.00     0.00
09/18/2021 14:00:00     0.00     0.00     0.00     0.00     0.00
09/18/2021 15:00:00     0.00     0.00     0.00     0.00     0.00